createdAt,value
2018-07-11T00:00:39.480Z,91.80
2018-07-11T00:03:07.220Z,91.90
2018-07-11T00:05:35.022Z,91.80
2018-07-11T00:08:02.772Z,91.80
2018-07-11T00:10:30.517Z,91.80
2018-07-11T00:12:58.210Z,91.90
2018-07-11T00:15:25.964Z,91.90
2018-07-11T00:20:21.338Z,91.90
2018-07-11T00:22:49.150Z,91.90
2018-07-11T00:27:44.503Z,92.10
2018-07-11T00:30:12.289Z,92.10
2018-07-11T00:32:40.072Z,92.10
2018-07-11T00:35:07.854Z,92.20
2018-07-11T00:40:03.407Z,92.30
2018-07-11T00:42:31.197Z,92.30
2018-07-11T00:44:58.949Z,92.70
2018-07-11T00:47:26.702Z,92.30
2018-07-11T00:49:54.497Z,92.40
2018-07-11T00:52:22.467Z,92.40
2018-07-11T00:54:50.256Z,92.30
2018-07-11T00:57:18.250Z,92.30
2018-07-11T00:59:46.252Z,92.40
2018-07-11T01:02:14.487Z,92.40
2018-07-11T01:04:42.257Z,92.40
2018-07-11T01:07:10.033Z,92.50
2018-07-11T01:09:45.274Z,92.50
2018-07-11T01:12:13.069Z,92.60
2018-07-11T01:14:40.860Z,92.60
2018-07-11T01:17:14.201Z,92.70
2018-07-11T01:19:42.729Z,92.80
2018-07-11T01:22:10.511Z,92.80
2018-07-11T01:24:38.241Z,92.80
2018-07-11T01:27:05.967Z,92.80
2018-07-11T01:29:33.771Z,92.70
2018-07-11T01:32:01.523Z,92.70
2018-07-11T01:34:29.209Z,92.70
2018-07-11T01:36:56.897Z,92.70
2018-07-11T01:39:24.593Z,92.70
2018-07-11T01:41:52.363Z,92.70
2018-07-11T01:44:20.107Z,92.70
2018-07-11T01:46:50.109Z,92.60
2018-07-11T01:49:17.925Z,92.60
2018-07-11T01:51:57.658Z,92.50
2018-07-11T01:54:26.026Z,92.50
2018-07-11T01:56:53.812Z,92.60
2018-07-11T01:59:22.854Z,92.60
2018-07-11T02:01:50.629Z,92.60
2018-07-11T02:04:18.367Z,92.60
2018-07-11T02:06:46.201Z,92.70
2018-07-11T02:09:14.129Z,92.80
2018-07-11T02:11:42.139Z,92.80
2018-07-11T02:14:10.225Z,92.80
2018-07-11T02:16:38.033Z,92.90
2018-07-11T02:19:05.862Z,93.00
2018-07-11T02:21:33.672Z,93.00
2018-07-11T02:24:03.023Z,93.10
2018-07-11T02:26:30.761Z,93.20
2018-07-11T02:28:58.992Z,93.10
2018-07-11T02:31:27.154Z,93.00
2018-07-11T02:33:54.915Z,93.00
2018-07-11T02:36:22.674Z,93.30
2018-07-11T02:41:18.046Z,92.90
2018-07-11T02:43:45.851Z,92.80
2018-07-11T02:46:13.589Z,92.80
2018-07-11T02:48:41.374Z,92.70
2018-07-11T02:51:09.172Z,92.60
2018-07-11T02:53:36.970Z,92.60
2018-07-11T02:56:04.824Z,92.70
2018-07-11T02:58:32.536Z,92.70
2018-07-11T03:01:00.273Z,92.70
2018-07-11T03:03:27.936Z,92.60
2018-07-11T03:05:55.951Z,92.60
2018-07-11T03:08:34.136Z,92.60
2018-07-11T03:13:29.596Z,92.60
2018-07-11T03:15:57.362Z,92.40
2018-07-11T03:18:25.074Z,92.40
2018-07-11T03:20:52.820Z,92.30
2018-07-11T03:23:20.568Z,92.30
2018-07-11T03:25:48.301Z,92.20
2018-07-11T03:28:16.295Z,92.20
2018-07-11T03:30:44.088Z,92.20
2018-07-11T03:33:11.788Z,92.20
2018-07-11T03:35:39.503Z,92.30
2018-07-11T03:38:07.276Z,92.30
2018-07-11T03:40:35.043Z,92.20
2018-07-11T03:43:02.839Z,92.10
2018-07-11T03:47:58.266Z,92.00
2018-07-11T03:50:25.967Z,92.00
2018-07-11T03:52:53.656Z,91.90
2018-07-11T03:55:21.336Z,91.90
2018-07-11T03:57:49.032Z,92.00
2018-07-11T04:00:16.774Z,91.90
2018-07-11T04:02:44.496Z,92.00
2018-07-11T04:05:12.330Z,92.10
2018-07-11T04:07:40.033Z,92.10
2018-07-11T04:10:07.730Z,92.10
2018-07-11T04:12:35.381Z,92.10
2018-07-11T04:15:03.138Z,92.10
2018-07-11T04:17:30.812Z,92.10
2018-07-11T04:19:58.570Z,92.10
2018-07-11T04:22:26.290Z,92.10
2018-07-11T04:24:53.971Z,92.10
2018-07-11T04:27:21.784Z,92.00
2018-07-11T04:29:49.836Z,92.00
2018-07-11T04:32:17.616Z,91.80
2018-07-11T04:34:45.321Z,91.80
2018-07-11T04:37:12.995Z,91.80
2018-07-11T04:39:40.726Z,91.90
2018-07-11T04:42:08.604Z,91.90
2018-07-11T04:44:36.420Z,91.90
2018-07-11T04:47:04.150Z,91.80
2018-07-11T04:49:31.932Z,91.80
2018-07-11T04:51:59.714Z,91.80
2018-07-11T04:56:55.136Z,91.60
2018-07-11T04:59:22.859Z,91.60
2018-07-11T05:01:50.542Z,91.40
2018-07-11T05:04:18.482Z,91.30
2018-07-11T05:06:46.148Z,91.20
2018-07-11T05:09:13.826Z,91.50
2018-07-11T05:11:41.553Z,91.10
2018-07-11T05:14:09.249Z,91.10
2018-07-11T05:16:36.940Z,91.00
2018-07-11T05:19:04.784Z,90.90
2018-07-11T05:21:32.448Z,90.80
2018-07-11T05:24:00.073Z,90.70
2018-07-11T05:26:27.814Z,90.80
2018-07-11T05:31:23.181Z,90.50
2018-07-11T05:33:50.861Z,90.50
2018-07-11T05:36:18.564Z,90.50
2018-07-11T05:38:46.465Z,90.50
2018-07-11T05:41:14.180Z,90.50
2018-07-11T05:43:41.848Z,90.50
2018-07-11T05:46:09.501Z,90.50
2018-07-11T05:51:04.861Z,90.20
2018-07-11T05:53:32.545Z,90.10
2018-07-11T05:56:00.533Z,89.80
2018-07-11T05:58:28.250Z,89.80
2018-07-11T06:00:55.961Z,89.60
2018-07-11T06:03:23.700Z,89.40
2018-07-11T06:05:51.416Z,89.10
2018-07-11T06:08:19.130Z,88.80
2018-07-11T06:10:46.823Z,88.60
2018-07-11T06:13:14.553Z,88.10
2018-07-11T06:15:42.293Z,87.80
2018-07-11T06:18:09.996Z,87.80
2018-07-11T06:20:37.697Z,87.30
2018-07-11T06:23:05.427Z,87.00
2018-07-11T06:25:33.137Z,86.60
2018-07-11T06:28:00.813Z,86.00
2018-07-11T06:30:28.542Z,85.80
2018-07-11T06:32:56.310Z,85.30
2018-07-11T06:35:24.050Z,85.10
2018-07-11T06:37:51.854Z,84.60
2018-07-11T06:40:19.562Z,84.30
2018-07-11T06:42:47.211Z,83.90
2018-07-11T06:45:14.961Z,83.50
2018-07-11T06:47:42.816Z,83.00
2018-07-11T06:50:10.568Z,82.40
2018-07-11T06:52:38.228Z,82.10
2018-07-11T06:55:05.908Z,82.30
2018-07-11T06:57:33.706Z,82.30
2018-07-11T07:00:01.472Z,81.40
2018-07-11T07:02:29.235Z,81.00
2018-07-11T07:04:56.885Z,81.00
2018-07-11T07:07:24.540Z,79.30
2018-07-11T07:09:52.216Z,78.50
2018-07-11T07:12:19.860Z,77.90
2018-07-11T07:14:47.569Z,77.30
2018-07-11T07:17:15.456Z,76.20
2018-07-11T07:19:43.152Z,75.50
2018-07-11T07:22:11.034Z,75.00
2018-07-11T07:24:38.786Z,74.30
2018-07-11T07:27:06.617Z,73.40
2018-07-11T07:29:34.368Z,72.40
2018-07-11T07:32:02.058Z,73.40
2018-07-11T07:34:29.671Z,73.20
2018-07-11T07:36:57.455Z,71.80
2018-07-11T07:39:25.211Z,71.80
2018-07-11T07:41:52.936Z,71.60
2018-07-11T07:46:54.080Z,70.20
2018-07-11T07:49:21.910Z,69.40
2018-07-11T07:51:49.620Z,68.40
2018-07-11T07:54:17.382Z,67.60
2018-07-11T07:56:45.193Z,66.70
2018-07-11T07:59:13.310Z,66.10
2018-07-11T08:01:41.152Z,65.70
2018-07-11T08:04:10.280Z,64.70
2018-07-11T08:06:38.018Z,64.50
2018-07-11T08:09:05.969Z,64.10
2018-07-11T08:11:33.652Z,63.30
2018-07-11T08:14:01.363Z,62.60
2018-07-11T08:16:29.068Z,61.60
2018-07-11T08:18:56.788Z,61.20
2018-07-11T08:21:24.535Z,60.70
2018-07-11T08:24:03.509Z,59.90
2018-07-11T08:26:42.459Z,59.80
2018-07-11T08:29:36.871Z,59.10
2018-07-11T08:32:17.559Z,58.70
2018-07-11T08:40:35.482Z,58.20
2018-07-11T08:44:10.651Z,57.50
2018-07-11T08:46:46.449Z,56.90
2018-07-11T08:49:25.516Z,56.60
2018-07-11T08:52:20.177Z,56.30
2018-07-11T08:56:02.471Z,55.90
2018-07-11T08:58:53.649Z,56.00
2018-07-11T09:01:36.704Z,56.00
2018-07-11T09:06:21.281Z,56.30
2018-07-11T09:09:04.131Z,55.50
2018-07-11T09:11:50.512Z,55.20
2018-07-11T09:14:28.440Z,54.60
2018-07-11T09:18:10.877Z,53.60
2018-07-11T09:23:56.014Z,52.40
2018-07-11T09:26:23.705Z,52.50
2018-07-11T09:28:51.429Z,53.50
2018-07-11T09:31:19.191Z,53.90
2018-07-11T09:33:46.887Z,53.70
2018-07-11T09:36:14.609Z,53.00
2018-07-11T09:38:42.321Z,52.10
2018-07-11T09:41:10.123Z,52.60
2018-07-11T09:43:37.881Z,51.80
2018-07-11T09:46:05.687Z,50.90
2018-07-11T09:48:33.530Z,50.60
2018-07-11T09:51:01.337Z,50.30
2018-07-11T09:53:29.145Z,49.80
2018-07-11T09:58:24.546Z,48.50
2018-07-11T10:00:57.887Z,48.60
2018-07-11T10:03:25.905Z,48.20
2018-07-11T10:05:53.915Z,47.90
2018-07-11T10:08:21.607Z,47.10
2018-07-11T10:10:49.268Z,46.40
2018-07-11T10:13:16.991Z,45.80
2018-07-11T10:18:12.515Z,46.70
2018-07-11T10:20:40.518Z,47.90
2018-07-11T10:23:08.249Z,48.20
2018-07-11T10:25:35.967Z,48.40
2018-07-11T10:28:12.347Z,48.70
2018-07-11T10:30:40.185Z,48.90
2018-07-11T10:33:07.915Z,47.40
2018-07-11T10:35:35.849Z,47.50
2018-07-11T10:38:03.613Z,46.70
2018-07-11T10:40:31.342Z,46.10
2018-07-11T10:42:59.253Z,44.90
2018-07-11T10:45:27.332Z,42.90
2018-07-11T10:47:55.080Z,43.30
2018-07-11T10:50:22.832Z,42.90
2018-07-11T10:52:50.918Z,43.40
2018-07-11T10:55:18.809Z,44.10
2018-07-11T10:57:46.766Z,44.20
2018-07-11T11:00:35.972Z,44.40
2018-07-11T11:02:47.430Z,44.90
2018-07-11T11:05:15.178Z,44.70
2018-07-11T11:07:43.186Z,44.40
2018-07-11T11:10:10.940Z,44.20
2018-07-11T11:12:38.733Z,43.00
2018-07-11T11:15:06.514Z,43.10
2018-07-11T11:17:34.232Z,42.10
2018-07-11T11:20:01.998Z,41.00
2018-07-11T11:22:29.754Z,41.30
2018-07-11T11:24:57.505Z,41.30
2018-07-11T11:27:25.180Z,41.20
2018-07-11T11:29:52.960Z,40.70
2018-07-11T11:32:20.666Z,42.00
2018-07-11T11:34:48.422Z,41.90
2018-07-11T11:37:16.153Z,41.70
2018-07-11T11:42:11.830Z,41.30
2018-07-11T11:44:39.247Z,41.30
2018-07-11T11:47:06.978Z,41.00
2018-07-11T11:49:34.742Z,40.80
2018-07-11T11:54:30.061Z,40.20
2018-07-11T11:56:57.788Z,39.50
2018-07-11T11:59:25.496Z,38.90
2018-07-11T12:01:53.274Z,38.80
2018-07-11T12:04:21.060Z,38.10
2018-07-11T12:06:48.698Z,37.40
2018-07-11T12:09:16.620Z,37.40
2018-07-11T12:11:44.383Z,37.80
2018-07-11T12:14:12.089Z,37.90
2018-07-11T12:16:39.842Z,38.10
2018-07-11T12:19:07.530Z,37.80
2018-07-11T12:21:35.321Z,37.30
2018-07-11T12:24:03.016Z,36.80
2018-07-11T12:26:30.795Z,36.30
2018-07-11T12:28:58.500Z,36.60
2018-07-11T12:31:26.249Z,37.40
2018-07-11T12:33:53.994Z,38.10
2018-07-11T12:36:21.790Z,38.00
2018-07-11T12:38:53.184Z,38.00
2018-07-11T12:41:21.176Z,37.80
2018-07-11T12:43:48.916Z,37.60
2018-07-11T12:46:16.704Z,37.90
2018-07-11T12:48:50.170Z,38.30
2018-07-11T12:53:45.560Z,37.80
2018-07-11T12:56:13.352Z,37.90
2018-07-11T12:58:41.194Z,38.10
2018-07-11T13:01:08.998Z,37.70
2018-07-11T13:03:36.730Z,37.50
2018-07-11T13:06:04.956Z,37.70
2018-07-11T13:08:32.730Z,37.50
2018-07-11T13:11:00.537Z,37.40
2018-07-11T13:15:55.912Z,37.50
2018-07-11T13:18:23.606Z,37.70
2018-07-11T13:20:51.305Z,37.70
2018-07-11T13:23:18.996Z,38.00
2018-07-11T13:25:46.702Z,38.20
2018-07-11T13:28:14.421Z,38.50
2018-07-11T13:30:42.233Z,38.40
2018-07-11T13:33:09.988Z,38.00
2018-07-11T13:35:37.689Z,38.40
2018-07-11T13:38:05.498Z,38.30
2018-07-11T13:40:33.459Z,37.90
2018-07-11T13:43:01.223Z,37.50
2018-07-11T13:45:29.015Z,37.90
2018-07-11T13:48:00.660Z,37.80
2018-07-11T13:50:28.493Z,37.50
2018-07-11T13:52:57.005Z,37.40
2018-07-11T13:55:25.085Z,37.10
2018-07-11T13:57:52.883Z,36.80
2018-07-11T14:00:20.644Z,37.40
2018-07-11T14:02:49.085Z,37.40
2018-07-11T14:05:17.051Z,37.50
2018-07-11T14:07:44.827Z,37.60
2018-07-11T14:10:12.784Z,38.00
2018-07-11T14:12:40.595Z,38.50
2018-07-11T14:15:08.708Z,39.10
2018-07-11T14:17:36.475Z,39.10
2018-07-11T14:20:05.316Z,39.50
2018-07-11T14:22:32.985Z,39.40
2018-07-11T14:25:01.270Z,39.90
2018-07-11T14:27:29.147Z,40.40
2018-07-11T14:29:59.207Z,40.70
2018-07-11T14:32:27.005Z,40.80
2018-07-11T14:34:54.790Z,41.20
2018-07-11T14:37:22.503Z,41.40
2018-07-11T14:39:50.318Z,41.90
2018-07-11T14:42:18.010Z,42.30
2018-07-11T14:44:45.824Z,43.10
2018-07-11T14:47:19.315Z,43.90
2018-07-11T14:49:47.088Z,44.40
2018-07-11T14:52:14.853Z,44.40
2018-07-11T14:54:42.633Z,44.90
2018-07-11T14:57:10.547Z,44.90
2018-07-11T14:59:38.255Z,44.40
2018-07-11T15:02:06.009Z,44.00
2018-07-11T15:04:33.727Z,43.10
2018-07-11T15:07:01.440Z,42.80
2018-07-11T15:09:29.357Z,43.30
2018-07-11T15:11:57.009Z,41.80
2018-07-11T15:14:24.843Z,41.60
2018-07-11T15:16:52.622Z,40.30
2018-07-11T15:19:20.386Z,39.90
2018-07-11T15:21:48.190Z,38.90
2018-07-11T15:24:16.303Z,37.80
2018-07-11T15:26:44.018Z,36.60
2018-07-11T15:29:11.807Z,36.10
2018-07-11T15:31:39.554Z,35.20
2018-07-11T15:34:07.353Z,35.70
2018-07-11T15:36:35.577Z,35.30
2018-07-11T15:39:04.313Z,33.90
2018-07-11T15:41:32.448Z,34.70
2018-07-11T15:44:00.415Z,34.30
2018-07-11T15:48:55.808Z,34.80
2018-07-11T15:51:23.607Z,34.40
2018-07-11T15:53:51.437Z,34.30
2018-07-11T15:56:19.281Z,34.60
2018-07-11T15:58:52.843Z,34.40
2018-07-11T16:06:17.105Z,34.00
2018-07-11T16:08:47.256Z,34.10
2018-07-11T16:11:15.038Z,33.40
2018-07-11T16:13:42.820Z,33.40
2018-07-11T16:16:10.506Z,33.70
2018-07-11T16:18:38.207Z,33.60
2018-07-11T16:21:06.834Z,32.90
2018-07-11T16:23:34.621Z,32.80
2018-07-11T16:26:02.392Z,32.50
2018-07-11T16:28:30.160Z,32.60
2018-07-11T16:30:57.973Z,32.50
2018-07-11T16:33:25.745Z,32.40
2018-07-11T16:35:53.632Z,32.50
2018-07-11T16:38:21.388Z,32.80
2018-07-11T16:40:49.633Z,33.40
2018-07-11T16:43:17.469Z,33.50
2018-07-11T16:45:45.298Z,33.10
2018-07-11T16:48:13.073Z,33.40
2018-07-11T16:50:40.854Z,34.80
2018-07-11T16:53:08.687Z,34.10
2018-07-11T16:55:36.475Z,34.10
2018-07-11T16:58:04.274Z,33.40
2018-07-11T17:00:33.264Z,33.10
2018-07-11T17:03:11.126Z,32.90
2018-07-11T17:05:52.438Z,33.00
2018-07-11T17:08:28.668Z,33.60
2018-07-11T17:11:03.484Z,34.70
2018-07-11T17:13:31.282Z,35.20
2018-07-11T17:15:59.052Z,35.70
2018-07-11T17:18:38.744Z,35.40
2018-07-11T17:21:08.188Z,35.90
2018-07-11T17:23:42.958Z,36.10
2018-07-11T17:28:38.398Z,35.00
2018-07-11T17:31:06.204Z,34.90
2018-07-11T17:33:34.007Z,34.70
2018-07-11T17:36:01.788Z,34.90
2018-07-11T17:38:30.730Z,35.00
2018-07-11T17:41:00.811Z,35.10
2018-07-11T17:43:36.717Z,35.90
2018-07-11T17:46:05.299Z,36.40
2018-07-11T17:48:46.912Z,36.80
2018-07-11T17:51:51.114Z,37.60
2018-07-11T17:54:18.904Z,37.70
2018-07-11T17:56:57.085Z,38.50
2018-07-11T17:59:45.888Z,39.00
2018-07-11T18:02:19.134Z,40.20
2018-07-11T18:04:56.348Z,40.20
2018-07-11T18:07:56.057Z,40.60
2018-07-11T18:10:55.032Z,41.10
2018-07-11T18:13:42.071Z,41.60
2018-07-11T18:16:44.726Z,41.80
2018-07-11T18:21:54.683Z,42.70
2018-07-11T18:24:36.056Z,43.00
2018-07-11T18:27:15.122Z,43.90
2018-07-11T18:32:02.643Z,43.40
2018-07-11T18:36:42.161Z,43.50
2018-07-11T18:39:15.609Z,43.80
2018-07-11T18:41:51.705Z,44.70
2018-07-11T18:45:35.272Z,45.00
2018-07-11T18:48:18.103Z,45.10
2018-07-11T18:52:58.972Z,45.40
2018-07-11T18:55:36.128Z,46.20
2018-07-11T18:58:19.151Z,45.90
2018-07-11T19:00:58.209Z,46.30
2018-07-11T19:03:34.675Z,46.50
2018-07-11T19:06:41.030Z,47.00
2018-07-11T19:09:11.082Z,47.30
2018-07-11T19:13:53.321Z,47.30
2018-07-11T19:17:04.564Z,47.70
2018-07-11T19:19:39.893Z,47.90
2018-07-11T19:24:19.965Z,48.20
2018-07-11T19:27:01.937Z,48.30
2018-07-11T19:29:49.119Z,48.20
2018-07-11T19:32:28.263Z,48.60
2018-07-11T19:37:04.693Z,49.00
2018-07-11T19:39:44.773Z,49.40
2018-07-11T19:42:17.885Z,49.60
2018-07-11T19:44:59.135Z,49.90
2018-07-11T19:47:40.717Z,50.30
2018-07-11T19:50:32.444Z,50.40
2018-07-11T19:53:09.147Z,50.80
2018-07-11T19:56:44.389Z,51.20
2018-07-11T19:59:13.158Z,51.60
2018-07-11T20:01:40.980Z,51.90
2018-07-11T20:04:09.511Z,52.20
2018-07-11T20:06:37.507Z,52.40
2018-07-11T20:09:06.132Z,52.70
2018-07-11T20:11:34.241Z,52.80
2018-07-11T20:16:29.696Z,53.20
2018-07-11T20:18:57.680Z,53.40
2018-07-11T20:21:25.589Z,53.90
2018-07-11T20:23:53.334Z,54.20
2018-07-11T20:26:21.165Z,54.90
2018-07-11T20:28:49.001Z,55.60
2018-07-11T20:31:16.747Z,56.30
2018-07-11T20:33:44.482Z,56.80
2018-07-11T20:36:12.440Z,57.10
2018-07-11T20:38:40.853Z,57.80
2018-07-11T20:41:09.273Z,58.40
2018-07-11T20:43:36.930Z,58.90
2018-07-11T20:46:05.754Z,59.10
2018-07-11T20:48:33.528Z,59.60
2018-07-11T20:51:01.312Z,60.60
2018-07-11T20:53:29.054Z,59.90
2018-07-11T20:55:57.156Z,60.70
2018-07-11T20:58:36.682Z,60.80
2018-07-11T21:01:15.669Z,61.60
2018-07-11T21:03:53.492Z,61.90
2018-07-11T21:07:30.798Z,62.10
2018-07-11T21:12:14.758Z,62.30
2018-07-11T21:16:55.208Z,62.30
2018-07-11T21:19:23.014Z,62.40
2018-07-11T21:21:50.644Z,62.70
2018-07-11T21:24:18.402Z,63.70
2018-07-11T21:26:46.096Z,64.10
2018-07-11T21:29:13.809Z,64.40
2018-07-11T21:31:41.478Z,64.90
2018-07-11T21:34:09.176Z,65.20
2018-07-11T21:36:36.940Z,66.50
2018-07-11T21:39:05.170Z,66.00
2018-07-11T21:41:33.120Z,66.20
2018-07-11T21:44:00.916Z,66.60
2018-07-11T21:46:28.604Z,66.70
2018-07-11T21:48:56.274Z,67.00
2018-07-11T21:51:24.042Z,67.30
2018-07-11T21:53:51.759Z,67.40
2018-07-11T21:56:19.510Z,67.50
2018-07-11T21:58:47.244Z,67.80
2018-07-11T22:01:15.985Z,68.10
2018-07-11T22:03:43.696Z,68.40
2018-07-11T22:06:11.364Z,69.40
2018-07-11T22:08:39.162Z,69.30
2018-07-11T22:11:06.793Z,69.30
2018-07-11T22:13:34.492Z,69.70
2018-07-11T22:16:02.177Z,70.00
2018-07-11T22:18:37.444Z,70.20
2018-07-11T22:21:05.054Z,70.60
2018-07-11T22:23:31.620Z,70.80
2018-07-11T22:28:25.318Z,71.70
2018-07-11T22:30:51.827Z,73.00
2018-07-11T22:33:18.295Z,72.50
2018-07-11T22:35:44.797Z,72.90
2018-07-11T22:38:11.820Z,73.30
2018-07-11T22:40:38.524Z,73.70
2018-07-11T22:43:05.310Z,74.30
2018-07-11T22:45:31.826Z,74.40
2018-07-11T22:47:58.411Z,74.70
2018-07-11T22:50:25.108Z,74.90
2018-07-11T22:52:51.594Z,75.70
2018-07-11T22:55:18.093Z,76.10
2018-07-11T22:57:44.589Z,76.10
2018-07-11T23:00:11.060Z,76.40
2018-07-11T23:02:37.508Z,76.40
2018-07-11T23:05:04.009Z,76.50
2018-07-11T23:07:30.497Z,76.30
2018-07-11T23:09:56.980Z,76.20
2018-07-11T23:12:23.464Z,76.10
2018-07-11T23:14:49.948Z,76.20
2018-07-11T23:17:16.410Z,76.40
2018-07-11T23:19:42.910Z,76.60
2018-07-11T23:22:09.384Z,76.60
2018-07-11T23:24:35.848Z,76.80
2018-07-11T23:27:02.333Z,76.90
2018-07-11T23:29:28.814Z,76.40
2018-07-11T23:31:55.313Z,76.50
2018-07-11T23:34:21.805Z,76.60
2018-07-11T23:36:48.288Z,76.40
2018-07-11T23:39:14.783Z,76.50
2018-07-11T23:41:41.299Z,76.70
2018-07-11T23:44:07.769Z,77.50
2018-07-11T23:46:34.249Z,76.40
2018-07-11T23:49:00.755Z,76.00
2018-07-11T23:51:27.217Z,76.10
2018-07-11T23:53:53.691Z,76.10
2018-07-11T23:56:20.216Z,76.40
2018-07-11T23:58:47.065Z,77.20
